sensor_id;sensor_type;location;lat;lon;timestamp;pressure;altitude;pressure_sealevel;temperature;humidity
60240;BME280;46102;39.012;-7.064;2023-04-06T00:00:09;98214.50;;;17.57;19.75
60240;BME280;46102;39.012;-7.064;2023-04-06T00:02:10;98217.63;;;17.55;20.07
60240;BME280;46102;39.012;-7.064;2023-04-06T00:04:11;98215.91;;;17.47;20.04
60240;BME280;46102;39.012;-7.064;2023-04-06T00:06:12;98212.59;;;17.38;20.02
60240;BME280;46102;39.012;-7.064;2023-04-06T00:08:13;98211.13;;;17.44;20.06
60240;BME280;46102;39.012;-7.064;2023-04-06T00:10:13;98210.88;;;17.30;20.27
60240;BME280;46102;39.012;-7.064;2023-04-06T00:12:14;98217.16;;;17.26;20.28
60240;BME280;46102;39.012;-7.064;2023-04-06T00:14:15;98214.22;;;17.39;20.29
60240;BME280;46102;39.012;-7.064;2023-04-06T00:16:17;98209.03;;;17.37;20.15
60240;BME280;46102;39.012;-7.064;2023-04-06T00:18:18;98204.22;;;17.34;20.28
60240;BME280;46102;39.012;-7.064;2023-04-06T00:20:19;98209.66;;;17.27;20.49
60240;BME280;46102;39.012;-7.064;2023-04-06T00:22:20;98203.38;;;17.30;20.41
60240;BME280;46102;39.012;-7.064;2023-04-06T00:24:20;98209.28;;;17.28;20.05
60240;BME280;46102;39.012;-7.064;2023-04-06T00:26:21;98202.44;;;17.22;20.50
60240;BME280;46102;39.012;-7.064;2023-04-06T00:28:23;98199.53;;;17.15;20.28
60240;BME280;46102;39.012;-7.064;2023-04-06T00:30:26;98202.53;;;17.06;20.59
60240;BME280;46102;39.012;-7.064;2023-04-06T00:32:27;98208.53;;;17.09;20.59
60240;BME280;46102;39.012;-7.064;2023-04-06T00:34:28;98201.75;;;17.06;20.57
60240;BME280;46102;39.012;-7.064;2023-04-06T00:36:28;98191.78;;;17.01;20.61
60240;BME280;46102;39.012;-7.064;2023-04-06T00:38:30;98200.53;;;17.03;20.74
60240;BME280;46102;39.012;-7.064;2023-04-06T00:40:30;98198.53;;;17.04;20.74
60240;BME280;46102;39.012;-7.064;2023-04-06T00:42:32;98195.06;;;17.07;20.75
60240;BME280;46102;39.012;-7.064;2023-04-06T00:44:33;98199.59;;;16.96;21.10
60240;BME280;46102;39.012;-7.064;2023-04-06T00:46:34;98195.53;;;16.90;21.02
60240;BME280;46102;39.012;-7.064;2023-04-06T00:48:34;98198.00;;;16.95;20.98
60240;BME280;46102;39.012;-7.064;2023-04-06T00:50:35;98189.91;;;16.86;21.28
60240;BME280;46102;39.012;-7.064;2023-04-06T00:52:36;98199.44;;;16.89;21.37
60240;BME280;46102;39.012;-7.064;2023-04-06T00:54:37;98190.56;;;16.79;21.30
60240;BME280;46102;39.012;-7.064;2023-04-06T00:56:38;98192.63;;;16.82;21.57
60240;BME280;46102;39.012;-7.064;2023-04-06T00:58:39;98189.25;;;16.73;21.84
60240;BME280;46102;39.012;-7.064;2023-04-06T01:00:41;98193.84;;;16.65;22.01
60240;BME280;46102;39.012;-7.064;2023-04-06T01:02:46;98192.31;;;16.68;22.05
60240;BME280;46102;39.012;-7.064;2023-04-06T01:04:52;98194.38;;;16.71;21.84
60240;BME280;46102;39.012;-7.064;2023-04-06T01:07:09;98197.41;;;16.66;21.86
60240;BME280;46102;39.012;-7.064;2023-04-06T01:09:17;98193.84;;;16.65;22.22
60240;BME280;46102;39.012;-7.064;2023-04-06T01:11:18;98193.06;;;16.65;22.30
60240;BME280;46102;39.012;-7.064;2023-04-06T01:13:20;98186.63;;;16.61;22.05
60240;BME280;46102;39.012;-7.064;2023-04-06T01:15:28;98192.97;;;16.61;22.19
60240;BME280;46102;39.012;-7.064;2023-04-06T01:17:29;98191.38;;;16.60;22.23
60240;BME280;46102;39.012;-7.064;2023-04-06T01:19:32;98195.03;;;16.64;22.43
60240;BME280;46102;39.012;-7.064;2023-04-06T01:21:33;98192.19;;;16.61;22.39
60240;BME280;46102;39.012;-7.064;2023-04-06T01:23:49;98191.69;;;16.55;22.38
60240;BME280;46102;39.012;-7.064;2023-04-06T01:25:55;98199.78;;;16.44;22.86
60240;BME280;46102;39.012;-7.064;2023-04-06T01:27:57;98200.63;;;16.29;23.33
60240;BME280;46102;39.012;-7.064;2023-04-06T01:30:10;98197.69;;;16.02;24.23
60240;BME280;46102;39.012;-7.064;2023-04-06T01:32:27;98205.97;;;15.83;24.50
60240;BME280;46102;39.012;-7.064;2023-04-06T01:34:28;98200.06;;;15.69;24.69
60240;BME280;46102;39.012;-7.064;2023-04-06T01:36:32;98206.41;;;15.53;24.85
60240;BME280;46102;39.012;-7.064;2023-04-06T01:38:45;98198.34;;;15.45;24.93
60240;BME280;46102;39.012;-7.064;2023-04-06T01:40:45;98196.53;;;15.36;25.15
60240;BME280;46102;39.012;-7.064;2023-04-06T01:42:46;98192.53;;;15.34;25.07
60240;BME280;46102;39.012;-7.064;2023-04-06T01:44:54;98195.94;;;15.27;25.45
60240;BME280;46102;39.012;-7.064;2023-04-06T01:46:55;98208.41;;;15.21;25.42
60240;BME280;46102;39.012;-7.064;2023-04-06T01:48:56;98202.34;;;15.15;25.60
60240;BME280;46102;39.012;-7.064;2023-04-06T01:51:07;98199.38;;;15.08;25.83
60240;BME280;46102;39.012;-7.064;2023-04-06T01:53:16;98200.81;;;15.02;25.86
60240;BME280;46102;39.012;-7.064;2023-04-06T01:55:18;98194.41;;;14.98;26.14
60240;BME280;46102;39.012;-7.064;2023-04-06T01:57:38;98187.06;;;14.90;26.00
60240;BME280;46102;39.012;-7.064;2023-04-06T01:59:47;98186.44;;;14.81;26.35
60240;BME280;46102;39.012;-7.064;2023-04-06T02:01:55;98180.41;;;14.75;26.44
60240;BME280;46102;39.012;-7.064;2023-04-06T02:03:58;98181.09;;;14.72;26.68
60240;BME280;46102;39.012;-7.064;2023-04-06T02:05:59;98191.22;;;14.68;26.78
60240;BME280;46102;39.012;-7.064;2023-04-06T02:08:06;98181.69;;;14.65;27.02
60240;BME280;46102;39.012;-7.064;2023-04-06T02:10:13;98181.69;;;14.65;26.79
60240;BME280;46102;39.012;-7.064;2023-04-06T02:12:14;98184.22;;;14.70;26.85
60240;BME280;46102;39.012;-7.064;2023-04-06T02:14:15;98179.13;;;14.72;26.96
60240;BME280;46102;39.012;-7.064;2023-04-06T02:16:21;98189.63;;;14.67;27.12
60240;BME280;46102;39.012;-7.064;2023-04-06T02:18:22;98180.91;;;14.65;27.42
60240;BME280;46102;39.012;-7.064;2023-04-06T02:20:23;98183.66;;;14.65;27.45
60240;BME280;46102;39.012;-7.064;2023-04-06T02:22:24;98186.41;;;14.65;27.49
60240;BME280;46102;39.012;-7.064;2023-04-06T02:24:24;98180.44;;;14.63;27.82
60240;BME280;46102;39.012;-7.064;2023-04-06T02:26:25;98166.97;;;14.61;28.06
60240;BME280;46102;39.012;-7.064;2023-04-06T02:28:26;98176.09;;;14.62;28.11
60240;BME280;46102;39.012;-7.064;2023-04-06T02:30:26;98171.81;;;14.64;27.88
60240;BME280;46102;39.012;-7.064;2023-04-06T02:32:27;98171.09;;;14.67;27.58
60240;BME280;46102;39.012;-7.064;2023-04-06T02:34:28;98161.41;;;14.73;26.83
60240;BME280;46102;39.012;-7.064;2023-04-06T02:36:29;98171.28;;;14.74;26.73
60240;BME280;46102;39.012;-7.064;2023-04-06T02:38:30;98165.88;;;14.78;26.64
60240;BME280;46102;39.012;-7.064;2023-04-06T02:40:34;98159.63;;;14.81;26.26
60240;BME280;46102;39.012;-7.064;2023-04-06T02:42:43;98164.97;;;14.90;25.89
60240;BME280;46102;39.012;-7.064;2023-04-06T02:44:44;98161.16;;;14.94;25.68
60240;BME280;46102;39.012;-7.064;2023-04-06T02:46:45;98162.06;;;14.98;25.66
60240;BME280;46102;39.012;-7.064;2023-04-06T02:48:46;98160.72;;;15.08;25.39
60240;BME280;46102;39.012;-7.064;2023-04-06T02:50:48;98156.81;;;15.09;25.24
60240;BME280;46102;39.012;-7.064;2023-04-06T02:52:48;98158.06;;;15.12;24.96
60240;BME280;46102;39.012;-7.064;2023-04-06T02:54:49;98158.94;;;15.16;24.88
60240;BME280;46102;39.012;-7.064;2023-04-06T02:56:57;98160.34;;;15.26;24.32
60240;BME280;46102;39.012;-7.064;2023-04-06T02:59:06;98165.88;;;15.26;24.33
60240;BME280;46102;39.012;-7.064;2023-04-06T03:01:07;98155.19;;;15.24;24.21
60240;BME280;46102;39.012;-7.064;2023-04-06T03:03:10;98160.81;;;15.28;24.18
60240;BME280;46102;39.012;-7.064;2023-04-06T03:05:11;98161.97;;;15.27;24.04
60240;BME280;46102;39.012;-7.064;2023-04-06T03:07:16;98158.31;;;15.23;24.00
60240;BME280;46102;39.012;-7.064;2023-04-06T03:09:17;98157.25;;;15.27;23.83
60240;BME280;46102;39.012;-7.064;2023-04-06T03:11:18;98166.44;;;15.31;23.88
60240;BME280;46102;39.012;-7.064;2023-04-06T03:13:21;98174.72;;;15.31;23.71
60240;BME280;46102;39.012;-7.064;2023-04-06T03:15:30;98172.75;;;15.32;23.60
60240;BME280;46102;39.012;-7.064;2023-04-06T03:17:43;98167.56;;;15.30;25.30
60240;BME280;46102;39.012;-7.064;2023-04-06T03:19:51;98176.31;;;15.16;26.15
60240;BME280;46102;39.012;-7.064;2023-04-06T03:21:52;98183.81;;;15.00;26.69
60240;BME280;46102;39.012;-7.064;2023-04-06T03:23:55;98187.78;;;14.87;27.28
60240;BME280;46102;39.012;-7.064;2023-04-06T03:25:55;98188.56;;;14.71;27.45
60240;BME280;46102;39.012;-7.064;2023-04-06T03:27:56;98190.28;;;14.48;27.82
60240;BME280;46102;39.012;-7.064;2023-04-06T03:29:56;98186.84;;;14.38;27.94
60240;BME280;46102;39.012;-7.064;2023-04-06T03:32:04;98195.03;;;14.35;27.82
60240;BME280;46102;39.012;-7.064;2023-04-06T03:34:09;98192.94;;;14.32;27.77
60240;BME280;46102;39.012;-7.064;2023-04-06T03:36:10;98192.94;;;14.32;27.56
60240;BME280;46102;39.012;-7.064;2023-04-06T03:38:15;98188.16;;;14.29;27.35
60240;BME280;46102;39.012;-7.064;2023-04-06T03:40:15;98190.91;;;14.29;27.36
60240;BME280;46102;39.012;-7.064;2023-04-06T03:42:16;98182.97;;;14.27;27.11
60240;BME280;46102;39.012;-7.064;2023-04-06T03:44:24;98185.72;;;14.27;27.15
60240;BME280;46102;39.012;-7.064;2023-04-06T03:46:25;98183.88;;;14.31;26.93
60240;BME280;46102;39.012;-7.064;2023-04-06T03:48:28;98185.13;;;14.34;26.65
60240;BME280;46102;39.012;-7.064;2023-04-06T03:50:29;98180.53;;;14.38;26.46
60240;BME280;46102;39.012;-7.064;2023-04-06T03:52:29;98176.72;;;14.43;26.10
60240;BME280;46102;39.012;-7.064;2023-04-06T03:54:30;98176.81;;;14.46;25.45
60240;BME280;46102;39.012;-7.064;2023-04-06T03:56:31;98176.91;;;14.50;25.14
60240;BME280;46102;39.012;-7.064;2023-04-06T03:58:31;98171.50;;;14.53;24.73
60240;BME280;46102;39.012;-7.064;2023-04-06T04:00:32;98166.97;;;14.61;24.35
60240;BME280;46102;39.012;-7.064;2023-04-06T04:02:33;98166.97;;;14.61;24.01
60240;BME280;46102;39.012;-7.064;2023-04-06T04:04:33;98168.69;;;14.66;23.85
60240;BME280;46102;39.012;-7.064;2023-04-06T04:06:34;98177.19;;;14.73;23.73
60240;BME280;46102;39.012;-7.064;2023-04-06T04:08:37;98172.53;;;14.77;23.42
60240;BME280;46102;39.012;-7.064;2023-04-06T04:10:37;98172.97;;;14.79;23.10
60240;BME280;46102;39.012;-7.064;2023-04-06T04:12:38;98175.75;;;14.79;23.38
60240;BME280;46102;39.012;-7.064;2023-04-06T04:14:38;98170.31;;;14.83;23.07
60240;BME280;46102;39.012;-7.064;2023-04-06T04:16:39;98167.84;;;14.93;23.05
60240;BME280;46102;39.012;-7.064;2023-04-06T04:18:41;98162.66;;;14.92;22.74
60240;BME280;46102;39.012;-7.064;2023-04-06T04:20:43;98163.22;;;14.97;22.51
60240;BME280;46102;39.012;-7.064;2023-04-06T04:22:46;98163.69;;;14.99;22.72
60240;BME280;46102;39.012;-7.064;2023-04-06T04:24:46;98169.88;;;14.96;22.54
60240;BME280;46102;39.012;-7.064;2023-04-06T04:26:47;98171.84;;;14.96;22.67
60240;BME280;46102;39.012;-7.064;2023-04-06T04:28:48;98171.41;;;14.94;22.75
60240;BME280;46102;39.012;-7.064;2023-04-06T04:30:49;98176.94;;;14.94;22.58
60240;BME280;46102;39.012;-7.064;2023-04-06T04:32:50;98179.34;;;14.95;22.47
60240;BME280;46102;39.012;-7.064;2023-04-06T04:34:54;98173.56;;;15.01;22.58
60240;BME280;46102;39.012;-7.064;2023-04-06T04:37:06;98176.41;;;15.04;22.15
60240;BME280;46102;39.012;-7.064;2023-04-06T04:39:19;98179.97;;;15.05;22.22
60240;BME280;46102;39.012;-7.064;2023-04-06T04:41:25;98176.84;;;15.06;22.19
60240;BME280;46102;39.012;-7.064;2023-04-06T04:43:26;98168.66;;;15.10;22.11
60240;BME280;46102;39.012;-7.064;2023-04-06T04:45:26;98177.28;;;15.08;22.09
60240;BME280;46102;39.012;-7.064;2023-04-06T04:47:27;98179.69;;;15.10;21.84
60240;BME280;46102;39.012;-7.064;2023-04-06T04:49:28;98185.94;;;15.07;21.96
60240;BME280;46102;39.012;-7.064;2023-04-06T04:51:29;98184.31;;;15.06;21.92
60240;BME280;46102;39.012;-7.064;2023-04-06T04:53:40;98185.50;;;15.05;21.95
60240;BME280;46102;39.012;-7.064;2023-04-06T04:55:50;98180.94;;;15.12;21.80
60240;BME280;46102;39.012;-7.064;2023-04-06T04:57:52;98183.53;;;15.05;21.87
60240;BME280;46102;39.012;-7.064;2023-04-06T04:59:58;98178.72;;;15.02;21.96
60240;BME280;46102;39.012;-7.064;2023-04-06T05:01:59;98181.13;;;15.04;21.85
60240;BME280;46102;39.012;-7.064;2023-04-06T05:04:09;98177.81;;;14.98;21.89
60240;BME280;46102;39.012;-7.064;2023-04-06T05:06:11;98188.59;;;15.03;21.93
60240;BME280;46102;39.012;-7.064;2023-04-06T05:08:13;98185.78;;;14.99;21.89
60240;BME280;46102;39.012;-7.064;2023-04-06T05:10:18;98187.53;;;14.92;21.75
60240;BME280;46102;39.012;-7.064;2023-04-06T05:12:28;98193.16;;;14.95;21.64
60240;BME280;46102;39.012;-7.064;2023-04-06T05:14:38;98184.75;;;14.92;21.81
60240;BME280;46102;39.012;-7.064;2023-04-06T05:16:45;98187.53;;;14.92;21.58
60240;BME280;46102;39.012;-7.064;2023-04-06T05:18:47;98179.97;;;14.89;21.50
60240;BME280;46102;39.012;-7.064;2023-04-06T05:20:49;98183.88;;;14.88;21.50
60240;BME280;46102;39.012;-7.064;2023-04-06T05:22:53;98178.44;;;14.91;21.34
60240;BME280;46102;39.012;-7.064;2023-04-06T05:24:54;98183.25;;;14.94;21.19
60240;BME280;46102;39.012;-7.064;2023-04-06T05:26:54;98192.78;;;14.97;21.27
60240;BME280;46102;39.012;-7.064;2023-04-06T05:28:57;98186.47;;;14.96;21.11
60240;BME280;46102;39.012;-7.064;2023-04-06T05:31:00;98185.22;;;14.94;21.26
60240;BME280;46102;39.012;-7.064;2023-04-06T05:33:06;98195.09;;;14.95;21.17
60240;BME280;46102;39.012;-7.064;2023-04-06T05:35:20;98195.81;;;14.92;21.11
60240;BME280;46102;39.012;-7.064;2023-04-06T05:37:25;98188.88;;;14.98;21.16
60240;BME280;46102;39.012;-7.064;2023-04-06T05:39:25;98201.06;;;14.97;21.16
60240;BME280;46102;39.012;-7.064;2023-04-06T05:41:27;98201.91;;;14.97;21.03
60240;BME280;46102;39.012;-7.064;2023-04-06T05:43:29;98205.78;;;14.96;21.09
60240;BME280;46102;39.012;-7.064;2023-04-06T05:45:31;98200.88;;;14.90;21.11
60240;BME280;46102;39.012;-7.064;2023-04-06T05:47:33;98208.03;;;14.91;21.28
60240;BME280;46102;39.012;-7.064;2023-04-06T05:49:42;98206.84;;;14.92;21.27
60240;BME280;46102;39.012;-7.064;2023-04-06T05:51:48;98203.91;;;14.85;21.43
60240;BME280;46102;39.012;-7.064;2023-04-06T05:53:48;98210.56;;;14.84;21.59
60240;BME280;46102;39.012;-7.064;2023-04-06T05:55:49;98216.63;;;14.73;21.74
60240;BME280;46102;39.012;-7.064;2023-04-06T05:57:53;98210.75;;;14.75;21.97
60240;BME280;46102;39.012;-7.064;2023-04-06T05:59:55;98221.50;;;14.64;22.11
60240;BME280;46102;39.012;-7.064;2023-04-06T06:01:59;98225.22;;;14.56;22.36
60240;BME280;46102;39.012;-7.064;2023-04-06T06:04:04;98225.09;;;14.52;22.59
60240;BME280;46102;39.012;-7.064;2023-04-06T06:06:07;98228.09;;;14.47;22.60
60240;BME280;46102;39.012;-7.064;2023-04-06T06:08:19;98234.78;;;14.46;22.63
60240;BME280;46102;39.012;-7.064;2023-04-06T06:10:21;98229.84;;;14.40;22.91
60240;BME280;46102;39.012;-7.064;2023-04-06T06:12:23;98240.22;;;14.30;22.89
60240;BME280;46102;39.012;-7.064;2023-04-06T06:14:24;98241.63;;;14.24;23.07
60240;BME280;46102;39.012;-7.064;2023-04-06T06:16:25;98232.03;;;14.34;23.25
60240;BME280;46102;39.012;-7.064;2023-04-06T06:18:26;98237.00;;;14.28;23.33
60240;BME280;46102;39.012;-7.064;2023-04-06T06:20:28;98239.19;;;14.23;23.46
60240;BME280;46102;39.012;-7.064;2023-04-06T06:22:31;98233.59;;;14.19;23.49
60240;BME280;46102;39.012;-7.064;2023-04-06T06:24:32;98234.84;;;14.09;23.54
60240;BME280;46102;39.012;-7.064;2023-04-06T06:26:34;98239.13;;;14.07;23.61
60240;BME280;46102;39.012;-7.064;2023-04-06T06:28:38;98239.13;;;14.07;23.40
60240;BME280;46102;39.012;-7.064;2023-04-06T06:30:38;98248.09;;;14.04;23.53
60240;BME280;46102;39.012;-7.064;2023-04-06T06:32:39;98246.94;;;14.05;23.58
60240;BME280;46102;39.012;-7.064;2023-04-06T06:34:40;98249.00;;;14.08;23.61
60240;BME280;46102;39.012;-7.064;2023-04-06T06:36:42;98251.41;;;14.09;23.73
60240;BME280;46102;39.012;-7.064;2023-04-06T06:38:46;98256.13;;;14.09;24.00
60240;BME280;46102;39.012;-7.064;2023-04-06T06:40:49;98263.59;;;14.08;24.03
60240;BME280;46102;39.012;-7.064;2023-04-06T06:42:50;98267.06;;;14.05;23.90
60240;BME280;46102;39.012;-7.064;2023-04-06T06:45:03;98270.63;;;14.06;23.97
60240;BME280;46102;39.012;-7.064;2023-04-06T06:47:04;98252.69;;;14.12;23.68
60240;BME280;46102;39.012;-7.064;2023-04-06T06:49:04;98260.38;;;14.19;23.79
60240;BME280;46102;39.012;-7.064;2023-04-06T06:51:05;98261.38;;;14.26;23.82
60240;BME280;46102;39.012;-7.064;2023-04-06T06:53:06;98268.72;;;14.34;23.79
60240;BME280;46102;39.012;-7.064;2023-04-06T06:55:08;98264.34;;;14.46;23.50
60240;BME280;46102;39.012;-7.064;2023-04-06T06:57:09;98279.28;;;14.57;23.64
60240;BME280;46102;39.012;-7.064;2023-04-06T06:59:10;98279.47;;;14.64;24.15
60240;BME280;46102;39.012;-7.064;2023-04-06T07:01:11;98277.72;;;14.72;24.31
60240;BME280;46102;39.012;-7.064;2023-04-06T07:03:12;98277.44;;;14.77;24.46
60240;BME280;46102;39.012;-7.064;2023-04-06T07:05:12;98275.97;;;14.80;24.49
60240;BME280;46102;39.012;-7.064;2023-04-06T07:07:13;98282.38;;;14.84;24.96
60240;BME280;46102;39.012;-7.064;2023-04-06T07:09:14;98281.88;;;14.94;25.22
60240;BME280;46102;39.012;-7.064;2023-04-06T07:11:14;98278.25;;;15.06;25.46
60240;BME280;46102;39.012;-7.064;2023-04-06T07:13:15;98279.09;;;15.22;25.19
60240;BME280;46102;39.012;-7.064;2023-04-06T07:15:23;98285.78;;;15.37;25.73
60240;BME280;46102;39.012;-7.064;2023-04-06T07:17:25;98283.19;;;15.44;25.83
60240;BME280;46102;39.012;-7.064;2023-04-06T07:19:25;98288.66;;;15.56;25.94
60240;BME280;46102;39.012;-7.064;2023-04-06T07:21:26;98291.09;;;15.74;25.90
60240;BME280;46102;39.012;-7.064;2023-04-06T07:23:26;98289.63;;;15.96;25.63
60240;BME280;46102;39.012;-7.064;2023-04-06T07:25:27;98293.91;;;16.09;25.96
60240;BME280;46102;39.012;-7.064;2023-04-06T07:27:28;98294.88;;;16.17;25.80
60240;BME280;46102;39.012;-7.064;2023-04-06T07:29:29;98300.94;;;16.07;26.00
60240;BME280;46102;39.012;-7.064;2023-04-06T07:31:29;98302.75;;;15.99;26.48
60240;BME280;46102;39.012;-7.064;2023-04-06T07:33:30;98300.78;;;15.99;26.29
60240;BME280;46102;39.012;-7.064;2023-04-06T07:35:32;98307.84;;;15.97;26.00
60240;BME280;46102;39.012;-7.064;2023-04-06T07:37:33;98303.91;;;15.98;25.98
60240;BME280;46102;39.012;-7.064;2023-04-06T07:39:33;98309.69;;;16.09;25.80
60240;BME280;46102;39.012;-7.064;2023-04-06T07:41:35;98303.41;;;16.28;25.36
60240;BME280;46102;39.012;-7.064;2023-04-06T07:43:35;98306.75;;;16.53;25.00
60240;BME280;46102;39.012;-7.064;2023-04-06T07:45:36;98304.16;;;16.79;24.94
60240;BME280;46102;39.012;-7.064;2023-04-06T07:47:37;98297.38;;;16.96;24.40
60240;BME280;46102;39.012;-7.064;2023-04-06T07:49:38;98300.84;;;17.13;24.27
60240;BME280;46102;39.012;-7.064;2023-04-06T07:51:39;98300.69;;;17.25;24.19
60240;BME280;46102;39.012;-7.064;2023-04-06T07:53:40;98305.38;;;17.44;23.76
60240;BME280;46102;39.012;-7.064;2023-04-06T07:55:41;98300.72;;;17.48;23.75
60240;BME280;46102;39.012;-7.064;2023-04-06T07:57:41;98307.25;;;17.59;23.66
60240;BME280;46102;39.012;-7.064;2023-04-06T07:59:42;98308.97;;;17.67;23.83
60240;BME280;46102;39.012;-7.064;2023-04-06T08:01:42;98310.09;;;17.86;23.43
60240;BME280;46102;39.012;-7.064;2023-04-06T08:03:43;98307.63;;;18.04;23.21
60240;BME280;46102;39.012;-7.064;2023-04-06T08:05:44;98310.66;;;18.22;22.97
60240;BME280;46102;39.012;-7.064;2023-04-06T08:07:44;98305.84;;;18.45;22.96
60240;BME280;46102;39.012;-7.064;2023-04-06T08:09:45;98310.69;;;18.52;22.50
60240;BME280;46102;39.012;-7.064;2023-04-06T08:11:45;98313.94;;;18.58;22.38
60240;BME280;46102;39.012;-7.064;2023-04-06T08:13:48;98317.13;;;18.60;22.58
60240;BME280;46102;39.012;-7.064;2023-04-06T08:15:48;98309.28;;;18.65;22.80
60240;BME280;46102;39.012;-7.064;2023-04-06T08:17:49;98310.59;;;18.75;22.78
60240;BME280;46102;39.012;-7.064;2023-04-06T08:19:49;98314.31;;;18.86;22.71
60240;BME280;46102;39.012;-7.064;2023-04-06T08:21:50;98312.91;;;19.00;22.34
60240;BME280;46102;39.012;-7.064;2023-04-06T08:23:51;98317.03;;;19.13;22.30
60240;BME280;46102;39.012;-7.064;2023-04-06T08:25:52;98321.44;;;19.18;21.52
60240;BME280;46102;39.012;-7.064;2023-04-06T08:27:54;98310.44;;;19.28;21.61
60240;BME280;46102;39.012;-7.064;2023-04-06T08:29:55;98316.16;;;19.43;22.03
60240;BME280;46102;39.012;-7.064;2023-04-06T08:31:55;98317.06;;;19.54;22.29
60240;BME280;46102;39.012;-7.064;2023-04-06T08:33:56;98317.53;;;19.63;22.02
60240;BME280;46102;39.012;-7.064;2023-04-06T08:35:57;98319.25;;;19.71;22.03
60240;BME280;46102;39.012;-7.064;2023-04-06T08:37:57;98318.97;;;19.84;22.38
60240;BME280;46102;39.012;-7.064;2023-04-06T08:39:59;98324.75;;;20.12;22.30
60240;BME280;46102;39.012;-7.064;2023-04-06T08:42:00;98327.31;;;20.35;21.77
60240;BME280;46102;39.012;-7.064;2023-04-06T08:44:03;98329.81;;;20.51;21.09
60240;BME280;46102;39.012;-7.064;2023-04-06T08:46:04;98326.66;;;20.56;21.07
60240;BME280;46102;39.012;-7.064;2023-04-06T08:48:05;98321.91;;;20.64;21.43
60240;BME280;46102;39.012;-7.064;2023-04-06T08:50:07;98329.88;;;20.62;21.15
60240;BME280;46102;39.012;-7.064;2023-04-06T08:52:08;98333.50;;;20.70;21.11
60240;BME280;46102;39.012;-7.064;2023-04-06T08:54:10;98324.38;;;20.80;21.12
60240;BME280;46102;39.012;-7.064;2023-04-06T08:56:11;98329.69;;;21.03;21.09
60240;BME280;46102;39.012;-7.064;2023-04-06T08:58:12;98328.13;;;21.20;21.00
60240;BME280;46102;39.012;-7.064;2023-04-06T09:00:13;98336.94;;;21.26;20.10
60240;BME280;46102;39.012;-7.064;2023-04-06T09:02:15;98341.34;;;21.30;20.43
60240;BME280;46102;39.012;-7.064;2023-04-06T09:04:17;98341.75;;;21.39;20.79
60240;BME280;46102;39.012;-7.064;2023-04-06T09:06:18;98342.19;;;21.52;20.25
60240;BME280;46102;39.012;-7.064;2023-04-06T09:08:19;98345.81;;;21.81;20.26
60240;BME280;46102;39.012;-7.064;2023-04-06T09:10:19;98348.63;;;21.81;20.52
60240;BME280;46102;39.012;-7.064;2023-04-06T09:12:24;98356.22;;;21.99;20.37
60240;BME280;46102;39.012;-7.064;2023-04-06T09:14:36;98349.84;;;22.16;20.28
60240;BME280;46102;39.012;-7.064;2023-04-06T09:16:43;98354.66;;;22.30;19.79
60240;BME280;46102;39.012;-7.064;2023-04-06T09:18:44;98351.47;;;22.32;19.90
60240;BME280;46102;39.012;-7.064;2023-04-06T09:20:44;98347.44;;;22.33;19.92
60240;BME280;46102;39.012;-7.064;2023-04-06T09:22:45;98351.44;;;22.39;20.16
60240;BME280;46102;39.012;-7.064;2023-04-06T09:24:47;98365.78;;;22.59;19.81
60240;BME280;46102;39.012;-7.064;2023-04-06T09:26:47;98360.94;;;22.74;19.61
60240;BME280;46102;39.012;-7.064;2023-04-06T09:28:49;98367.34;;;22.81;18.93
60240;BME280;46102;39.012;-7.064;2023-04-06T09:30:50;98372.09;;;23.02;19.13
60240;BME280;46102;39.012;-7.064;2023-04-06T09:32:51;98364.81;;;23.23;18.20
60240;BME280;46102;39.012;-7.064;2023-04-06T09:34:52;98366.81;;;23.26;17.64
60240;BME280;46102;39.012;-7.064;2023-04-06T09:36:53;98372.38;;;23.33;18.12
60240;BME280;46102;39.012;-7.064;2023-04-06T09:38:55;98366.28;;;23.49;17.48
60240;BME280;46102;39.012;-7.064;2023-04-06T09:40:56;98363.72;;;23.73;17.80
60240;BME280;46102;39.012;-7.064;2023-04-06T09:42:56;98368.84;;;23.92;17.72
60240;BME280;46102;39.012;-7.064;2023-04-06T09:44:59;98369.50;;;24.07;17.04
60240;BME280;46102;39.012;-7.064;2023-04-06T09:47:00;98361.63;;;23.91;17.12
60240;BME280;46102;39.012;-7.064;2023-04-06T09:49:04;98372.75;;;24.02;17.74
60240;BME280;46102;39.012;-7.064;2023-04-06T09:51:05;98373.84;;;24.15;17.48
60240;BME280;46102;39.012;-7.064;2023-04-06T09:53:06;98369.19;;;23.98;17.81
60240;BME280;46102;39.012;-7.064;2023-04-06T09:55:07;98377.13;;;24.06;18.06
60240;BME280;46102;39.012;-7.064;2023-04-06T09:57:13;98382.72;;;24.10;17.79
60240;BME280;46102;39.012;-7.064;2023-04-06T09:59:21;98378.59;;;24.22;17.43
60240;BME280;46102;39.012;-7.064;2023-04-06T10:01:27;98377.69;;;24.36;17.37
60240;BME280;46102;39.012;-7.064;2023-04-06T10:05:50;98372.31;;;24.56;17.33
60240;BME280;46102;39.012;-7.064;2023-04-06T10:07:53;98376.59;;;24.71;17.39
60240;BME280;46102;39.012;-7.064;2023-04-06T10:09:54;98386.88;;;24.81;17.42
60240;BME280;46102;39.012;-7.064;2023-04-06T10:11:55;98384.59;;;25.07;17.51
60240;BME280;46102;39.012;-7.064;2023-04-06T10:13:56;98387.41;;;25.41;16.54
60240;BME280;46102;39.012;-7.064;2023-04-06T10:15:57;98391.84;;;25.42;16.34
60240;BME280;46102;39.012;-7.064;2023-04-06T10:17:58;98394.09;;;25.51;16.22
60240;BME280;46102;39.012;-7.064;2023-04-06T10:20:03;98389.31;;;25.51;15.88
60240;BME280;46102;39.012;-7.064;2023-04-06T10:22:08;98393.41;;;25.74;16.39
60240;BME280;46102;39.012;-7.064;2023-04-06T10:24:11;98398.19;;;26.04;16.25
60240;BME280;46102;39.012;-7.064;2023-04-06T10:26:14;98400.69;;;26.26;15.77
60240;BME280;46102;39.012;-7.064;2023-04-06T10:28:16;98391.69;;;26.34;15.75
60240;BME280;46102;39.012;-7.064;2023-04-06T10:30:20;98387.53;;;26.43;15.37
60240;BME280;46102;39.012;-7.064;2023-04-06T10:32:31;98383.38;;;26.51;14.93
60240;BME280;46102;39.012;-7.064;2023-04-06T10:34:35;98389.25;;;26.60;14.53
60240;BME280;46102;39.012;-7.064;2023-04-06T10:36:36;98388.44;;;26.83;14.57
60240;BME280;46102;39.012;-7.064;2023-04-06T10:38:37;98393.28;;;26.83;14.30
60240;BME280;46102;39.012;-7.064;2023-04-06T10:40:38;98393.34;;;26.99;14.09
60240;BME280;46102;39.012;-7.064;2023-04-06T10:42:40;98385.72;;;27.19;14.18